Time;durP1;ratioP1;P1;durP2;ratioP2;P2;SDS_P1;SDS_P2;PMS_P1;PMS_P2;Temp;Humidity;BMP_temperature;BMP_pressure;BME280_temperature;BME280_humidity;BME280_pressure;Samples;Min_cycle;Max_cycle;Signal;HPM_P1;HPM_P2
2022/12/06 00:01:49;;;;;;;;;;;;;;;2.88;100.00;101795.84;5057037;28;19960;-61
2022/12/06 00:04:15;;;;;;;;;;;;;;;2.77;100.00;101796.63;5052528;28;20381;-61
2022/12/06 00:06:46;;;;;;;;;;;;;;;2.70;100.00;101793.56;5033146;28;19931;-62
2022/12/06 00:09:19;;;;;;;;;;;;;;;2.63;100.00;101800.19;5056989;28;19927;-62
2022/12/06 00:11:44;;;;;;;;;;;;;;;2.54;100.00;101796.44;5055534;28;19931;-62
2022/12/06 00:14:10;;;;;;;;;;;;;;;2.45;100.00;101788.38;5064990;28;19920;-62
2022/12/06 00:16:35;;;;;;;;;;;;;;;2.33;100.00;101798.75;5054180;28;19978;-62
2022/12/06 00:19:01;;;;;;;;;;;;;;;2.17;100.00;101798.13;5058686;28;19920;-61
2022/12/06 00:21:28;;;;;;;;;;;;;;;2.05;100.00;101797.16;5057854;28;20340;-61
2022/12/06 00:23:55;;;;;;;;;;;;;;;1.92;100.00;101794.53;5058830;28;19948;-60
2022/12/06 00:26:21;;;;;;;;;;;;;;;1.84;100.00;101794.22;5058481;28;19991;-59
2022/12/06 00:28:46;;;;;;;;;;;;;;;1.80;100.00;101795.34;5053471;28;19966;-61
2022/12/06 00:31:16;;;;;;;;;;;;;;;1.74;100.00;101798.38;5037463;28;20318;-62
2022/12/06 00:33:42;;;;;;;;;;;;;;;1.64;100.00;101797.31;5042481;28;20361;-60
2022/12/06 00:36:10;;;;;;;;;;;;;;;1.52;100.00;101794.56;5054285;28;19924;-60
2022/12/06 00:38:35;;;;;;;;;;;;;;;1.40;100.00;101787.53;5059232;28;19925;-60
2022/12/06 00:41:05;;;;;;;;;;;;;;;1.28;100.00;101790.91;5056566;28;19924;-61
2022/12/06 00:43:31;;;;;;;;;;;;;;;1.23;100.00;101793.81;5055555;28;20394;-62
2022/12/06 00:45:56;;;;;;;;;;;;;;;1.14;100.00;101790.97;5061099;28;19929;-61
2022/12/06 00:48:22;;;;;;;;;;;;;;;1.04;100.00;101793.34;5053969;28;19920;-61
2022/12/06 00:50:47;;;;;;;;;;;;;;;0.91;100.00;101793.25;5051774;28;19929;-62
2022/12/06 00:53:13;;;;;;;;;;;;;;;0.82;100.00;101791.22;5058119;28;19921;-61
2022/12/06 00:55:38;;;;;;;;;;;;;;;0.73;100.00;101787.41;5049354;28;20412;-61
2022/12/06 00:58:03;;;;;;;;;;;;;;;0.71;100.00;101791.06;5061995;28;19921;-61
2022/12/06 01:00:28;;;;;;;;;;;;;;;0.70;100.00;101789.34;5062298;28;20369;-61
2022/12/06 01:02:54;;;;;;;;;;;;;;;0.65;100.00;101782.66;5055099;28;20043;-61
2022/12/06 01:05:19;;;;;;;;;;;;;;;0.54;100.00;101779.88;5057244;28;20413;-59
2022/12/06 01:07:44;;;;;;;;;;;;;;;0.48;100.00;101780.25;5060546;28;20255;-61
2022/12/06 01:10:09;;;;;;;;;;;;;;;0.46;100.00;101782.09;5060776;28;20415;-60
2022/12/06 01:12:35;;;;;;;;;;;;;;;0.43;100.00;101774.47;5056662;28;19959;-61
2022/12/06 01:15:00;;;;;;;;;;;;;;;0.35;100.00;101777.53;5059843;28;19978;-60
2022/12/06 01:17:25;;;;;;;;;;;;;;;0.24;100.00;101781.75;5061729;28;19924;-60
2022/12/06 01:19:50;;;;;;;;;;;;;;;0.15;100.00;101781.34;5052029;28;19928;-60
2022/12/06 01:22:16;;;;;;;;;;;;;;;0.12;100.00;101784.13;5060249;28;19982;-61
2022/12/06 01:24:41;;;;;;;;;;;;;;;0.06;100.00;101781.91;5041911;28;19920;-62
2022/12/06 01:27:06;;;;;;;;;;;;;;;0.01;100.00;101775.28;5059099;28;19929;-60
2022/12/06 01:29:32;;;;;;;;;;;;;;;-0.05;100.00;101776.50;5058171;28;20345;-61
2022/12/06 01:31:57;;;;;;;;;;;;;;;-0.12;100.00;101778.63;5057812;28;19970;-62
2022/12/06 01:34:23;;;;;;;;;;;;;;;-0.12;100.00;101777.78;5062479;28;19921;-60
2022/12/06 01:36:48;;;;;;;;;;;;;;;-0.16;100.00;101779.72;5061798;28;20388;-61
2022/12/06 01:39:14;;;;;;;;;;;;;;;-0.16;100.00;101773.66;5058792;28;20027;-60
2022/12/06 01:41:40;;;;;;;;;;;;;;;-0.16;100.00;101768.44;5058550;28;19921;-61
2022/12/06 01:44:05;;;;;;;;;;;;;;;-0.17;100.00;101770.22;5059111;28;20335;-61
2022/12/06 01:46:37;;;;;;;;;;;;;;;-0.22;100.00;101767.03;5061348;28;19931;-60
2022/12/06 01:49:03;;;;;;;;;;;;;;;-0.32;100.00;101769.34;5060432;28;19975;-61
2022/12/06 01:51:28;;;;;;;;;;;;;;;-0.40;100.00;101771.56;5055981;28;20388;-60
2022/12/06 01:53:54;;;;;;;;;;;;;;;-0.43;100.00;101765.69;5044135;28;19939;-62
2022/12/06 01:56:19;;;;;;;;;;;;;;;-0.40;100.00;101771.56;5041933;28;19928;-62
2022/12/06 01:58:47;;;;;;;;;;;;;;;-0.39;100.00;101772.38;5058267;28;19920;-60
2022/12/06 02:01:12;;;;;;;;;;;;;;;-0.33;100.00;101772.06;5062635;28;19927;-62
2022/12/06 02:03:37;;;;;;;;;;;;;;;-0.31;100.00;101778.84;5057587;28;19928;-61
2022/12/06 02:06:04;;;;;;;;;;;;;;;-0.17;100.00;101777.22;5056477;28;19921;-62
2022/12/06 02:08:30;;;;;;;;;;;;;;;-0.09;100.00;101777.59;5050529;28;19916;-61
2022/12/06 02:10:56;;;;;;;;;;;;;;;-0.02;100.00;101778.91;5056729;28;19929;-61
2022/12/06 02:13:22;;;;;;;;;;;;;;;0.03;100.00;101771.66;5056744;28;19928;-59
2022/12/06 02:16:06;;;;;;;;;;;;;;;0.09;100.00;101773.06;5056143;28;19927;-58
2022/12/06 02:18:40;;;;;;;;;;;;;;;0.13;100.00;101774.53;5052911;28;19924;-59
2022/12/06 02:21:13;;;;;;;;;;;;;;;0.07;100.00;101769.69;5035962;28;20298;-60
2022/12/06 02:23:44;;;;;;;;;;;;;;;0.15;100.00;101768.31;5059145;28;20229;-61
2022/12/06 02:26:16;;;;;;;;;;;;;;;0.15;100.00;101765.69;5036009;28;20049;-61
2022/12/06 02:29:00;;;;;;;;;;;;;;;0.12;100.00;101765.06;5041872;28;20345;-58
2022/12/06 02:31:37;;;;;;;;;;;;;;;0.14;100.00;101766.63;5052955;28;19921;-59
2022/12/06 02:34:22;;;;;;;;;;;;;;;0.12;100.00;101772.88;5056826;28;19924;-60
2022/12/06 02:36:47;;;;;;;;;;;;;;;0.18;100.00;101782.94;5054636;28;20293;-60
2022/12/06 02:39:28;;;;;;;;;;;;;;;0.23;100.00;101780.88;5055597;28;20095;-60
2022/12/06 02:41:57;;;;;;;;;;;;;;;0.42;100.00;101785.84;5060923;28;19924;-60
2022/12/06 02:44:27;;;;;;;;;;;;;;;0.45;100.00;101775.22;5056013;28;20339;-59
2022/12/06 02:46:53;;;;;;;;;;;;;;;0.69;100.00;101782.47;5056597;28;20270;-60
2022/12/06 02:49:19;;;;;;;;;;;;;;;0.77;100.00;101781.03;5059408;28;20969;-60
2022/12/06 02:51:46;;;;;;;;;;;;;;;0.95;100.00;101789.50;5044094;28;20004;-59
2022/12/06 02:54:12;;;;;;;;;;;;;;;1.07;100.00;101783.50;5037970;28;19933;-59
2022/12/06 02:56:37;;;;;;;;;;;;;;;1.22;100.00;101780.88;5061283;28;19924;-58
2022/12/06 02:59:03;;;;;;;;;;;;;;;1.24;100.00;101773.75;5056941;28;19940;-58
2022/12/06 03:01:30;;;;;;;;;;;;;;;1.41;100.00;101781.34;5057585;28;19947;-59
2022/12/06 03:03:58;;;;;;;;;;;;;;;1.66;100.00;101790.22;5058342;28;19921;-60
2022/12/06 03:06:41;;;;;;;;;;;;;;;1.77;100.00;101782.47;5068980;28;19920;-60
2022/12/06 03:09:19;;;;;;;;;;;;;;;1.84;100.00;101780.31;5054293;28;19920;-60
2022/12/06 03:11:47;;;;;;;;;;;;;;;1.89;100.00;101780.84;5058846;28;20338;-60
2022/12/06 03:14:17;;;;;;;;;;;;;;;1.96;100.00;101788.19;5059408;28;19960;-60
2022/12/06 03:17:00;;;;;;;;;;;;;;;2.02;100.00;101781.69;5059650;28;19924;-60
2022/12/06 03:19:27;;;;;;;;;;;;;;;2.20;100.00;101781.38;5057205;28;19920;-59
2022/12/06 03:21:52;;;;;;;;;;;;;;;2.36;100.00;101780.22;5053836;28;20293;-61
2022/12/06 03:24:20;;;;;;;;;;;;;;;2.45;100.00;101778.72;5037347;28;19929;-60
2022/12/06 03:26:47;;;;;;;;;;;;;;;2.59;100.00;101785.63;5040784;28;20294;-60
2022/12/06 03:29:13;;;;;;;;;;;;;;;2.61;100.00;101783.75;5059755;28;20492;-59
2022/12/06 03:31:40;;;;;;;;;;;;;;;2.67;100.00;101778.06;5061610;28;20325;-58
2022/12/06 03:34:14;;;;;;;;;;;;;;;2.80;100.00;101783.28;5055889;28;19921;-57
2022/12/06 03:36:42;;;;;;;;;;;;;;;2.78;100.00;101780.78;5057126;28;20015;-60
2022/12/06 03:39:08;;;;;;;;;;;;;;;2.83;100.00;101783.06;5058670;28;19924;-61
2022/12/06 03:41:43;;;;;;;;;;;;;;;2.86;100.00;101790.72;5055827;28;20443;-61
2022/12/06 03:44:09;;;;;;;;;;;;;;;2.93;100.00;101778.84;5044308;28;20019;-60
2022/12/06 03:46:36;;;;;;;;;;;;;;;2.92;100.00;101779.81;5070539;28;19920;-60
2022/12/06 03:49:10;;;;;;;;;;;;;;;2.97;100.00;101775.06;5061144;28;19952;-61
2022/12/06 03:51:37;;;;;;;;;;;;;;;3.01;100.00;101771.28;5062162;28;19916;-60
2022/12/06 03:54:04;;;;;;;;;;;;;;;3.01;100.00;101766.03;5056412;28;19920;-60
2022/12/06 03:56:30;;;;;;;;;;;;;;;3.05;100.00;101772.75;5061080;28;19928;-59
2022/12/06 03:58:55;;;;;;;;;;;;;;;3.10;100.00;101769.78;5067202;28;19929;-60
2022/12/06 04:01:20;;;;;;;;;;;;;;;3.12;100.00;101772.28;5063973;28;19974;-58
2022/12/06 04:03:46;;;;;;;;;;;;;;;3.09;100.00;101762.84;5064828;28;19924;-57
2022/12/06 04:06:11;;;;;;;;;;;;;;;3.13;100.00;101766.13;5063022;28;20098;-59
2022/12/06 04:08:37;;;;;;;;;;;;;;;3.16;100.00;101760.66;5084495;28;19974;-59
2022/12/06 04:11:02;;;;;;;;;;;;;;;3.20;100.00;101748.97;5058411;28;20003;-58
2022/12/06 04:13:27;;;;;;;;;;;;;;;3.24;100.00;101756.50;5066794;28;20006;-60
2022/12/06 04:15:57;;;;;;;;;;;;;;;3.25;100.00;101757.34;5060693;28;20370;-61
2022/12/06 04:18:22;;;;;;;;;;;;;;;3.24;100.00;101758.28;5064055;28;20377;-58
2022/12/06 04:23:36;;;;;;;;;;;;;;;3.29;100.00;101753.56;5072128;28;19977;-62
2022/12/06 04:26:03;;;;;;;;;;;;;;;3.36;100.00;101753.94;5068025;28;19925;-62
2022/12/06 04:39:25;;;;;;;;;;;;;;;3.53;100.00;101743.03;5053671;28;19979;-61
2022/12/06 04:44:34;;;;;;;;;;;;;;;3.57;100.00;101743.66;5058347;28;19995;-61
2022/12/06 04:47:00;;;;;;;;;;;;;;;3.63;100.00;101746.63;5064380;28;20459;-60
2022/12/06 04:49:25;;;;;;;;;;;;;;;3.63;100.00;101741.41;5063901;28;20328;-61
2022/12/06 04:51:51;;;;;;;;;;;;;;;3.65;100.00;101744.75;5055324;28;20357;-61
2022/12/06 04:54:16;;;;;;;;;;;;;;;3.64;100.00;101735.22;5055357;28;20293;-60
2022/12/06 04:56:41;;;;;;;;;;;;;;;3.68;100.00;101736.63;5059743;28;19921;-60
2022/12/06 04:59:07;;;;;;;;;;;;;;;3.72;100.00;101742.50;5055937;28;19936;-61
2022/12/06 05:01:32;;;;;;;;;;;;;;;3.76;100.00;101737.84;5040496;28;19971;-62
2022/12/06 05:03:57;;;;;;;;;;;;;;;3.74;100.00;101734.50;5057738;28;19925;-61
2022/12/06 05:06:23;;;;;;;;;;;;;;;3.72;100.00;101726.78;5065149;28;20324;-61
2022/12/06 05:08:48;;;;;;;;;;;;;;;3.71;100.00;101727.69;5033081;28;19929;-59
2022/12/06 05:11:13;;;;;;;;;;;;;;;3.69;100.00;101719.09;5057559;28;19921;-61
2022/12/06 05:13:38;;;;;;;;;;;;;;;3.64;100.00;101722.09;5059768;28;20246;-61
2022/12/06 05:16:05;;;;;;;;;;;;;;;3.57;100.00;101725.31;5060906;28;19974;-61
2022/12/06 05:18:30;;;;;;;;;;;;;;;3.51;100.00;101726.56;5059416;28;19932;-59
2022/12/06 05:21:07;;;;;;;;;;;;;;;3.49;100.00;101723.25;5058618;28;20386;-61
2022/12/06 05:23:33;;;;;;;;;;;;;;;3.50;100.00;101725.75;5050713;28;19936;-61
2022/12/06 05:26:02;;;;;;;;;;;;;;;3.53;100.00;101716.81;5065789;28;20922;-58
2022/12/06 05:28:27;;;;;;;;;;;;;;;3.57;100.00;101718.25;5054215;28;19935;-61
2022/12/06 05:30:53;;;;;;;;;;;;;;;3.62;100.00;101717.91;5052788;28;20830;-59
2022/12/06 05:33:18;;;;;;;;;;;;;;;3.66;100.00;101720.16;5057526;28;19927;-59
2022/12/06 05:35:43;;;;;;;;;;;;;;;3.63;100.00;101715.16;5054202;28;19966;-61
2022/12/06 05:38:08;;;;;;;;;;;;;;;3.60;100.00;101715.41;5059997;28;19924;-60
2022/12/06 05:40:34;;;;;;;;;;;;;;;3.60;100.00;101709.31;5060385;28;20333;-61
2022/12/06 05:42:59;;;;;;;;;;;;;;;3.58;100.00;101706.81;5051234;28;20374;-58
2022/12/06 05:45:24;;;;;;;;;;;;;;;3.53;100.00;101706.31;5054591;28;19925;-61
2022/12/06 05:47:49;;;;;;;;;;;;;;;3.46;100.00;101700.72;5058449;28;19932;-58
2022/12/06 05:50:15;;;;;;;;;;;;;;;3.43;100.00;101710.56;5056302;28;19920;-59
2022/12/06 05:52:40;;;;;;;;;;;;;;;3.40;100.00;101711.63;5058879;28;19969;-60
2022/12/06 05:55:06;;;;;;;;;;;;;;;3.39;100.00;101706.53;5050586;28;20370;-61
2022/12/06 05:57:31;;;;;;;;;;;;;;;3.36;100.00;101714.63;5052686;28;20440;-60
2022/12/06 05:59:56;;;;;;;;;;;;;;;3.35;100.00;101707.69;5032366;28;19967;-59
2022/12/06 06:02:22;;;;;;;;;;;;;;;3.32;100.00;101710.53;5055416;28;19921;-58
2022/12/06 06:04:47;;;;;;;;;;;;;;;3.34;100.00;101713.91;5052244;28;20421;-60
2022/12/06 06:07:12;;;;;;;;;;;;;;;3.31;100.00;101712.34;5066453;28;19920;-60
2022/12/06 06:09:37;;;;;;;;;;;;;;;3.22;100.00;101719.06;5054977;28;19928;-61
2022/12/06 06:12:02;;;;;;;;;;;;;;;3.18;100.00;101719.44;5061893;28;19920;-59
2022/12/06 06:14:28;;;;;;;;;;;;;;;3.16;100.00;101711.69;5057275;28;19974;-59
2022/12/06 06:16:53;;;;;;;;;;;;;;;3.12;100.00;101715.47;5039017;28;19928;-60
2022/12/06 06:19:19;;;;;;;;;;;;;;;3.11;100.00;101715.59;5055893;28;19920;-61
2022/12/06 06:21:44;;;;;;;;;;;;;;;3.02;100.00;101710.06;5053513;28;19927;-62
2022/12/06 06:24:09;;;;;;;;;;;;;;;2.89;100.00;101713.69;5048935;28;20010;-62
2022/12/06 06:26:34;;;;;;;;;;;;;;;2.71;100.00;101713.22;5052712;28;19920;-62
2022/12/06 06:29:00;;;;;;;;;;;;;;;2.54;100.00;101711.81;5052911;28;20301;-61
2022/12/06 06:31:25;;;;;;;;;;;;;;;2.33;100.00;101707.13;5066144;28;19920;-62
2022/12/06 06:33:50;;;;;;;;;;;;;;;2.17;100.00;101709.16;5059462;28;20010;-62
2022/12/06 06:36:16;;;;;;;;;;;;;;;2.10;100.00;101710.53;5036115;28;20369;-62
2022/12/06 06:38:41;;;;;;;;;;;;;;;2.01;100.00;101704.13;5054231;28;20009;-61
2022/12/06 06:41:06;;;;;;;;;;;;;;;1.90;100.00;101704.88;5057961;28;19935;-61
2022/12/06 06:43:32;;;;;;;;;;;;;;;1.82;100.00;101709.78;5056829;28;19932;-62
2022/12/06 06:45:59;;;;;;;;;;;;;;;1.72;100.00;101706.94;5054626;28;19947;-62
2022/12/06 06:48:25;;;;;;;;;;;;;;;1.57;100.00;101707.97;5050741;28;19966;-61
2022/12/06 06:50:50;;;;;;;;;;;;;;;1.45;100.00;101714.88;5056675;28;19936;-60
2022/12/06 06:53:15;;;;;;;;;;;;;;;1.35;100.00;101707.75;5056552;28;19920;-61
2022/12/06 06:55:42;;;;;;;;;;;;;;;1.28;100.00;101712.53;5061852;28;20036;-60
2022/12/06 06:58:07;;;;;;;;;;;;;;;1.19;100.00;101719.19;5055765;28;19939;-61
2022/12/06 07:00:33;;;;;;;;;;;;;;;1.05;100.00;101716.63;5063231;28;19927;-62
2022/12/06 07:02:59;;;;;;;;;;;;;;;0.93;100.00;101723.50;5056481;28;20397;-61
2022/12/06 07:05:24;;;;;;;;;;;;;;;0.84;100.00;101721.47;5051408;28;19955;-60
2022/12/06 07:07:50;;;;;;;;;;;;;;;0.72;100.00;101722.22;5050795;28;19920;-61
2022/12/06 07:10:15;;;;;;;;;;;;;;;0.61;100.00;101722.91;5054419;28;19927;-62
2022/12/06 07:12:40;;;;;;;;;;;;;;;0.53;100.00;101725.16;5062714;28;19928;-61
2022/12/06 07:15:06;;;;;;;;;;;;;;;0.46;100.00;101719.47;5053825;28;20405;-59
2022/12/06 07:17:31;;;;;;;;;;;;;;;0.43;100.00;101724.88;5055290;28;19941;-60
2022/12/06 07:19:56;;;;;;;;;;;;;;;0.38;100.00;101729.56;5059828;28;20286;-60
2022/12/06 07:22:22;;;;;;;;;;;;;;;0.29;100.00;101730.13;5059193;28;20022;-60
2022/12/06 07:24:47;;;;;;;;;;;;;;;0.15;100.00;101734.38;5052697;28;20016;-60
2022/12/06 07:27:12;;;;;;;;;;;;;;;0.08;100.00;101732.25;5057362;28;19943;-60
2022/12/06 07:29:37;;;;;;;;;;;;;;;0.05;100.00;101730.66;5055866;28;19966;-60
2022/12/06 07:32:03;;;;;;;;;;;;;;;0.05;100.00;101729.81;5054871;28;19928;-60
2022/12/06 07:34:28;;;;;;;;;;;;;;;0.02;100.00;101727.41;5055631;28;20369;-60
2022/12/06 07:36:53;;;;;;;;;;;;;;;-0.05;100.00;101732.16;5057751;28;19924;-60
2022/12/06 07:39:18;;;;;;;;;;;;;;;-0.14;100.00;101738.75;5057413;28;19920;-59
2022/12/06 07:47:12;;;;;;;;;;;;;;;-0.32;100.00;101738.06;5052357;28;19931;-60
2022/12/06 07:49:37;;;;;;;;;;;;;;;-0.37;100.00;101741.88;5049304;28;23087;-60
2022/12/06 07:52:02;;;;;;;;;;;;;;;-0.43;100.00;101756.09;5047902;28;20335;-58
2022/12/06 07:54:27;;;;;;;;;;;;;;;-0.53;100.00;101754.94;5051000;28;20031;-62
2022/12/06 07:56:55;;;;;;;;;;;;;;;-0.61;100.00;101758.00;5037545;28;20015;-61
2022/12/06 07:59:20;;;;;;;;;;;;;;;-0.66;100.00;101755.66;5034683;28;19928;-61
2022/12/06 08:01:45;;;;;;;;;;;;;;;-0.69;100.00;101752.38;5051137;28;19921;-59
2022/12/06 08:04:11;;;;;;;;;;;;;;;-0.80;100.00;101753.00;5049247;28;20320;-61
2022/12/06 08:06:36;;;;;;;;;;;;;;;-0.86;100.00;101750.72;5049884;28;20019;-61
2022/12/06 08:09:02;;;;;;;;;;;;;;;-0.90;100.00;101752.66;5037458;28;20039;-61
2022/12/06 08:11:27;;;;;;;;;;;;;;;-0.93;100.00;101759.78;5050993;28;20293;-61
2022/12/06 08:13:53;;;;;;;;;;;;;;;-0.97;100.00;101756.53;5049120;28;19956;-61
2022/12/06 08:16:18;;;;;;;;;;;;;;;-0.96;100.00;101760.81;5052021;28;20036;-61
2022/12/06 08:18:43;;;;;;;;;;;;;;;-0.97;100.00;101756.53;5052161;28;19927;-61
2022/12/06 08:21:09;;;;;;;;;;;;;;;-0.97;100.00;101759.13;5047826;28;20389;-60
2022/12/06 08:23:35;;;;;;;;;;;;;;;-0.98;100.00;101765.28;5052179;28;19928;-61
2022/12/06 08:26:02;;;;;;;;;;;;;;;-0.97;100.00;101763.50;5052823;28;19925;-60
2022/12/06 08:28:27;;;;;;;;;;;;;;;-0.99;100.00;101765.34;5054718;28;20007;-59
2022/12/06 08:30:53;;;;;;;;;;;;;;;-1.03;100.00;101764.69;5058179;28;19947;-58
2022/12/06 08:33:18;;;;;;;;;;;;;;;-1.08;100.00;101771.03;5060633;28;20359;-59
2022/12/06 08:35:43;;;;;;;;;;;;;;;-1.13;100.00;101776.53;5053729;28;19924;-58
2022/12/06 08:38:08;;;;;;;;;;;;;;;-1.15;100.00;101778.38;5055212;28;19931;-56
2022/12/06 08:40:34;;;;;;;;;;;;;;;-1.19;100.00;101772.50;5053994;28;19928;-60
2022/12/06 08:42:59;;;;;;;;;;;;;;;-1.15;100.00;101773.16;5060724;28;20026;-58
2022/12/06 08:45:24;;;;;;;;;;;;;;;-1.08;100.00;101774.53;5057260;28;20011;-59
2022/12/06 08:47:49;;;;;;;;;;;;;;;-1.02;100.00;101776.78;5052586;28;19971;-58
2022/12/06 08:50:14;;;;;;;;;;;;;;;-0.99;100.00;101779.19;5056312;28;19972;-57
2022/12/06 08:52:40;;;;;;;;;;;;;;;-0.96;100.00;101788.59;5061856;28;19963;-60
2022/12/06 08:55:05;;;;;;;;;;;;;;;-0.96;100.00;101793.81;5062014;28;20285;-60
2022/12/06 08:57:31;;;;;;;;;;;;;;;-0.89;100.00;101796.00;5056686;28;20358;-59
2022/12/06 08:59:57;;;;;;;;;;;;;;;-0.81;100.00;101797.34;5066542;28;19974;-59
2022/12/06 09:02:22;;;;;;;;;;;;;;;-0.73;100.00;101785.56;5060431;28;19924;-61
2022/12/06 09:04:49;;;;;;;;;;;;;;;-0.62;100.00;101799.75;5056969;28;19929;-60
2022/12/06 09:07:14;;;;;;;;;;;;;;;-0.47;100.00;101804.09;5058163;28;20333;-61
2022/12/06 09:09:39;;;;;;;;;;;;;;;-0.29;100.00;101804.81;5060921;28;19920;-58
2022/12/06 09:12:05;;;;;;;;;;;;;;;-0.18;100.00;101804.19;5054553;28;19924;-60
2022/12/06 09:14:30;;;;;;;;;;;;;;;-0.05;100.00;101811.22;5043494;28;20370;-59
2022/12/06 09:16:55;;;;;;;;;;;;;;;0.12;100.00;101812.00;5067488;28;19932;-57
2022/12/06 09:19:20;;;;;;;;;;;;;;;0.36;100.00;101801.84;5057881;28;19921;-61
2022/12/06 09:21:46;;;;;;;;;;;;;;;0.55;100.00;101807.66;5041387;28;19928;-60
2022/12/06 09:24:12;;;;;;;;;;;;;;;0.64;100.00;101811.47;5056193;28;20380;-61
2022/12/06 09:26:38;;;;;;;;;;;;;;;0.77;100.00;101817.59;5063639;28;19935;-60
2022/12/06 09:29:03;;;;;;;;;;;;;;;1.00;100.00;101815.34;5064674;28;20503;-60
2022/12/06 09:31:28;;;;;;;;;;;;;;;1.12;100.00;101813.75;5068968;28;19924;-61
2022/12/06 09:33:54;;;;;;;;;;;;;;;1.24;100.00;101811.19;5054287;28;19928;-61
2022/12/06 09:36:24;;;;;;;;;;;;;;;1.33;100.00;101817.59;5055740;28;20263;-60
2022/12/06 09:38:53;;;;;;;;;;;;;;;1.49;100.00;101820.06;5062218;28;19927;-59
2022/12/06 09:41:27;;;;;;;;;;;;;;;1.57;100.00;101817.78;5057376;28;19967;-61
2022/12/06 09:43:55;;;;;;;;;;;;;;;1.77;100.00;101813.88;5053263;28;20460;-60
2022/12/06 09:47:17;;;;;;;;;;;;;;;1.95;100.00;101823.09;5057594;28;19925;-60
2022/12/06 09:49:54;;;;;;;;;;;;;;;2.07;100.00;101826.69;5057243;28;20336;-60
2022/12/06 09:52:37;;;;;;;;;;;;;;;2.14;100.00;101822.72;5058619;28;19920;-61
2022/12/06 09:55:17;;;;;;;;;;;;;;;2.22;100.00;101829.19;5057815;28;19921;-61
2022/12/06 09:57:53;;;;;;;;;;;;;;;2.27;100.00;101822.75;5054292;28;19921;-59
2022/12/06 10:00:20;;;;;;;;;;;;;;;2.40;100.00;101822.72;5057871;28;20469;-59
2022/12/06 10:03:01;;;;;;;;;;;;;;;2.50;100.00;101815.06;5060435;28;19925;-59
2022/12/06 10:05:51;;;;;;;;;;;;;;;2.50;100.00;101809.84;5058042;28;19931;-59
2022/12/06 10:08:19;;;;;;;;;;;;;;;2.63;100.00;101813.28;5049001;28;19925;-60
2022/12/06 10:10:52;;;;;;;;;;;;;;;2.69;100.00;101815.47;5056345;28;20039;-58
2022/12/06 10:13:26;;;;;;;;;;;;;;;2.76;100.00;101808.88;5054947;28;20003;-58
2022/12/06 10:16:00;;;;;;;;;;;;;;;2.83;100.00;101810.09;5048228;28;19932;-57
2022/12/06 10:18:44;;;;;;;;;;;;;;;2.91;100.00;101801.69;5049931;28;20179;-58
2022/12/06 10:21:22;;;;;;;;;;;;;;;2.92;100.00;101802.53;5049200;28;19933;-60
2022/12/06 10:23:55;;;;;;;;;;;;;;;2.96;100.00;101799.59;5051037;28;19921;-59
2022/12/06 10:26:46;;;;;;;;;;;;;;;3.07;100.00;101804.06;5060394;28;19943;-58
2022/12/06 10:29:14;;;;;;;;;;;;;;;3.20;100.00;101797.00;5052685;28;19929;-59
2022/12/06 10:31:47;;;;;;;;;;;;;;;3.28;100.00;101788.59;5047565;28;20343;-60
2022/12/06 10:34:20;;;;;;;;;;;;;;;3.38;100.00;101781.72;5049187;28;19948;-58
2022/12/06 10:36:59;;;;;;;;;;;;;;;3.43;100.00;101781.38;5053795;28;19925;-58
2022/12/06 10:39:32;;;;;;;;;;;;;;;3.50;100.00;101775.56;5047474;28;20421;-58
2022/12/06 10:42:05;;;;;;;;;;;;;;;3.60;100.00;101767.84;5048118;28;19921;-60
2022/12/06 10:44:34;;;;;;;;;;;;;;;3.70;100.00;101763.59;5048866;28;19924;-59
2022/12/06 10:47:03;;;;;;;;;;;;;;;3.77;100.00;101757.88;5055927;28;20297;-60
2022/12/06 10:49:48;;;;;;;;;;;;;;;3.82;100.00;101761.00;5050587;28;19921;-59
2022/12/06 10:52:23;;;;;;;;;;;;;;;3.93;100.00;101764.50;5055245;28;19942;-59
2022/12/06 10:55:03;;;;;;;;;;;;;;;3.97;100.00;101753.75;5054363;28;19962;-58
2022/12/06 10:57:39;;;;;;;;;;;;;;;4.03;100.00;101748.88;5045162;28;20209;-59
2022/12/06 11:00:14;;;;;;;;;;;;;;;4.08;100.00;101752.00;5043236;28;20298;-59
2022/12/06 11:02:52;;;;;;;;;;;;;;;4.15;100.00;101732.16;5040061;28;19928;-59
2022/12/06 11:05:20;;;;;;;;;;;;;;;4.22;100.00;101736.97;5035765;28;19936;-59
2022/12/06 11:07:47;;;;;;;;;;;;;;;4.25;100.00;101728.84;5045511;28;19924;-59
2022/12/06 11:10:25;;;;;;;;;;;;;;;4.37;100.00;101733.16;5036579;28;20297;-58
2022/12/06 11:12:57;;;;;;;;;;;;;;;4.47;100.00;101725.38;5044689;28;19921;-59
2022/12/06 11:15:32;;;;;;;;;;;;;;;4.50;100.00;101725.16;5037893;28;20015;-60
2022/12/06 11:18:02;;;;;;;;;;;;;;;4.62;100.00;101731.19;5034968;28;19925;-58
2022/12/06 11:20:31;;;;;;;;;;;;;;;4.59;100.00;101729.66;5037649;28;19931;-58
2022/12/06 11:23:09;;;;;;;;;;;;;;;4.68;100.00;101728.94;5038668;28;19932;-57
2022/12/06 11:25:34;;;;;;;;;;;;;;;4.74;100.00;101728.44;5046184;28;19927;-59
2022/12/06 11:28:04;;;;;;;;;;;;;;;4.79;100.00;101726.28;5037729;28;19921;-55
2022/12/06 11:30:30;;;;;;;;;;;;;;;4.97;100.00;101723.13;5036254;28;20054;-60
2022/12/06 11:32:55;;;;;;;;;;;;;;;5.14;100.00;101719.16;5037900;28;20007;-58
2022/12/06 11:35:23;;;;;;;;;;;;;;;5.20;100.00;101710.75;5039684;28;19921;-59
2022/12/06 11:37:52;;;;;;;;;;;;;;;5.22;100.00;101703.56;5042828;28;20051;-60
2022/12/06 11:40:17;;;;;;;;;;;;;;;5.27;100.00;101690.03;5039459;28;20012;-60
2022/12/06 11:42:42;;;;;;;;;;;;;;;5.30;100.00;101690.63;5045463;28;20011;-58
2022/12/06 11:45:25;;;;;;;;;;;;;;;5.37;100.00;101678.63;5046926;28;19920;-58
2022/12/06 11:48:01;;;;;;;;;;;;;;;5.41;100.00;101682.66;5035324;28;19921;-59
2022/12/06 11:50:31;;;;;;;;;;;;;;;5.37;100.00;101668.13;5043687;28;19935;-58
2022/12/06 11:52:59;;;;;;;;;;;;;;;5.46;100.00;101672.59;5039153;28;19924;-58
2022/12/06 11:55:26;;;;;;;;;;;;;;;5.53;100.00;101675.56;5043520;28;19943;-59
2022/12/06 11:58:09;;;;;;;;;;;;;;;5.56;100.00;101671.84;5044432;28;19931;-59
2022/12/06 12:00:35;;;;;;;;;;;;;;;5.54;100.00;101660.59;5039577;28;19925;-59
2022/12/06 12:03:00;;;;;;;;;;;;;;;5.60;100.00;101652.19;5042170;28;19928;-58
2022/12/06 12:05:29;;;;;;;;;;;;;;;5.58;100.00;101660.22;5049771;28;19921;-60
2022/12/06 12:08:01;;;;;;;;;;;;;;;5.58;100.00;101660.22;5037800;28;20016;-61
2022/12/06 12:10:30;;;;;;;;;;;;;;;5.60;100.00;101652.19;5035013;28;19954;-60
2022/12/06 12:15:48;;;;;;;;;;;;;;;5.73;100.00;101642.31;5037584;28;19996;-58
2022/12/06 12:18:33;;;;;;;;;;;;;;;5.74;100.00;101641.31;5040660;28;19992;-58
2022/12/06 12:20:59;;;;;;;;;;;;;;;5.82;100.00;101645.94;5039019;28;19928;-58
2022/12/06 12:23:26;;;;;;;;;;;;;;;5.83;100.00;101648.41;5041409;28;20016;-60
2022/12/06 12:26:17;;;;;;;;;;;;;;;5.81;100.00;101650.38;5040451;28;19936;-60
2022/12/06 12:28:44;;;;;;;;;;;;;;;5.72;100.00;101645.06;5031713;28;19929;-59
2022/12/06 12:31:09;;;;;;;;;;;;;;;5.84;100.00;101641.38;5033920;28;19921;-58
2022/12/06 12:33:35;;;;;;;;;;;;;;;5.96;100.00;101635.06;5033903;28;20003;-60
2022/12/06 12:36:03;;;;;;;;;;;;;;;5.94;100.00;101633.53;5038045;28;19921;-60
2022/12/06 12:38:31;;;;;;;;;;;;;;;5.86;100.00;101621.84;5046010;28;20397;-60
2022/12/06 12:41:01;;;;;;;;;;;;;;;5.83;100.00;101616.84;5040657;28;19925;-60
2022/12/06 12:43:31;;;;;;;;;;;;;;;5.85;100.00;101619.34;5042328;28;19925;-59
2022/12/06 12:46:09;;;;;;;;;;;;;;;5.84;100.00;101628.22;5032160;28;19928;-59
2022/12/06 12:48:35;;;;;;;;;;;;;;;5.77;100.00;101627.91;5038164;28;19921;-59
2022/12/06 12:51:02;;;;;;;;;;;;;;;5.77;100.00;101611.28;5043841;28;20003;-59
2022/12/06 12:53:29;;;;;;;;;;;;;;;5.71;100.00;101607.38;5034684;28;20445;-60
2022/12/06 12:56:13;;;;;;;;;;;;;;;5.70;100.00;101610.97;5043167;28;19925;-60
2022/12/06 12:58:38;;;;;;;;;;;;;;;5.78;100.00;101605.91;5039190;28;20339;-61
2022/12/06 13:01:22;;;;;;;;;;;;;;;5.87;100.00;101607.72;5035952;28;19925;-59
2022/12/06 13:03:48;;;;;;;;;;;;;;;5.93;100.00;101610.78;5037165;28;20299;-57
2022/12/06 13:06:27;;;;;;;;;;;;;;;5.79;100.00;101589.13;5035274;28;20000;-59